sensor_id;sensor_type;location;lat;lon;timestamp;pressure;altitude;pressure_sealevel;temperature;humidity
68948;BME280;55996;49.546;7.400;2022-10-17T00:01:47;99131.22;;;13.22;100.00
68948;BME280;55996;49.546;7.400;2022-10-17T00:04:13;99145.09;;;13.26;100.00
68948;BME280;55996;49.546;7.400;2022-10-17T00:06:38;99164.94;;;13.33;100.00
68948;BME280;55996;49.546;7.400;2022-10-17T00:09:04;99166.03;;;13.28;100.00
68948;BME280;55996;49.546;7.400;2022-10-17T00:11:29;99148.63;;;13.25;100.00
68948;BME280;55996;49.546;7.400;2022-10-17T00:13:55;99155.38;;;13.32;100.00
68948;BME280;55996;49.546;7.400;2022-10-17T00:16:26;99146.31;;;13.16;100.00
68948;BME280;55996;49.546;7.400;2022-10-17T00:18:51;99156.19;;;13.09;100.00
68948;BME280;55996;49.546;7.400;2022-10-17T00:21:18;99157.31;;;13.02;100.00
68948;BME280;55996;49.546;7.400;2022-10-17T00:23:44;99164.97;;;13.08;100.00
68948;BME280;55996;49.546;7.400;2022-10-17T00:26:10;99154.31;;;13.13;100.00
68948;BME280;55996;49.546;7.400;2022-10-17T00:28:35;99154.59;;;13.05;100.00
68948;BME280;55996;49.546;7.400;2022-10-17T00:31:04;99152.75;;;13.07;100.00
68948;BME280;55996;49.546;7.400;2022-10-17T00:33:31;99154.69;;;13.02;100.00
68948;BME280;55996;49.546;7.400;2022-10-17T00:36:13;99151.31;;;12.98;100.00
68948;BME280;55996;49.546;7.400;2022-10-17T00:38:41;99146.28;;;12.92;100.00
68948;BME280;55996;49.546;7.400;2022-10-17T00:41:13;99145.38;;;12.93;100.00
68948;BME280;55996;49.546;7.400;2022-10-17T00:43:49;99148.81;;;12.95;100.00
68948;BME280;55996;49.546;7.400;2022-10-17T00:46:14;99152.44;;;12.91;100.00
68948;BME280;55996;49.546;7.400;2022-10-17T00:48:40;99150.69;;;12.91;100.00
68948;BME280;55996;49.546;7.400;2022-10-17T00:51:05;99150.34;;;13.02;100.00
68948;BME280;55996;49.546;7.400;2022-10-17T00:53:32;99154.09;;;12.94;100.00
68948;BME280;55996;49.546;7.400;2022-10-17T00:55:57;99144.63;;;12.89;100.00
68948;BME280;55996;49.546;7.400;2022-10-17T00:58:23;99152.28;;;12.96;100.00
68948;BME280;55996;49.546;7.400;2022-10-17T01:00:48;99147.38;;;12.86;100.00
68948;BME280;55996;49.546;7.400;2022-10-17T01:03:14;99148.06;;;12.91;100.00
68948;BME280;55996;49.546;7.400;2022-10-17T01:05:40;99151.25;;;13.00;100.00
68948;BME280;55996;49.546;7.400;2022-10-17T01:08:06;99147.72;;;13.01;100.00
68948;BME280;55996;49.546;7.400;2022-10-17T01:10:51;99146.00;;;13.00;100.00
68948;BME280;55996;49.546;7.400;2022-10-17T01:13:34;99149.56;;;12.99;100.00
68948;BME280;55996;49.546;7.400;2022-10-17T01:16:17;99144.53;;;12.93;100.00
68948;BME280;55996;49.546;7.400;2022-10-17T01:18:53;99140.25;;;12.90;100.00
68948;BME280;55996;49.546;7.400;2022-10-17T01:21:59;99150.63;;;12.93;100.00
68948;BME280;55996;49.546;7.400;2022-10-17T01:27:33;99159.31;;;12.70;100.00
68948;BME280;55996;49.546;7.400;2022-10-17T01:32:56;99155.16;;;12.63;100.00
68948;BME280;55996;49.546;7.400;2022-10-17T01:35:37;99153.28;;;12.66;100.00
68948;BME280;55996;49.546;7.400;2022-10-17T01:38:10;99158.19;;;12.77;100.00
68948;BME280;55996;49.546;7.400;2022-10-17T01:40:44;99156.53;;;12.74;100.00
68948;BME280;55996;49.546;7.400;2022-10-17T01:48:51;99146.66;;;12.56;100.00
68948;BME280;55996;49.546;7.400;2022-10-17T01:51:25;99153.19;;;12.44;100.00
68948;BME280;55996;49.546;7.400;2022-10-17T01:54:01;99158.00;;;12.56;100.00
68948;BME280;55996;49.546;7.400;2022-10-17T01:56:29;99147.75;;;12.50;100.00
68948;BME280;55996;49.546;7.400;2022-10-17T01:59:00;99142.50;;;12.50;100.00
68948;BME280;55996;49.546;7.400;2022-10-17T02:01:28;99139.75;;;12.53;100.00
68948;BME280;55996;49.546;7.400;2022-10-17T02:03:56;99140.38;;;12.62;100.00
68948;BME280;55996;49.546;7.400;2022-10-17T02:06:23;99138.94;;;12.51;100.00
68948;BME280;55996;49.546;7.400;2022-10-17T02:08:49;99143.28;;;12.52;100.00
68948;BME280;55996;49.546;7.400;2022-10-17T02:11:20;99139.50;;;12.61;100.00
68948;BME280;55996;49.546;7.400;2022-10-17T02:14:13;99138.84;;;12.54;100.00
68948;BME280;55996;49.546;7.400;2022-10-17T02:22:42;99141.28;;;12.34;100.00
68948;BME280;55996;49.546;7.400;2022-10-17T02:28:12;99148.59;;;12.51;100.00
68948;BME280;55996;49.546;7.400;2022-10-17T02:33:28;99140.88;;;12.46;100.00
68948;BME280;55996;49.546;7.400;2022-10-17T02:36:00;99147.75;;;12.50;100.00
68948;BME280;55996;49.546;7.400;2022-10-17T02:38:29;99148.03;;;12.41;100.00
68948;BME280;55996;49.546;7.400;2022-10-17T02:40:55;99137.34;;;12.47;100.00
68948;BME280;55996;49.546;7.400;2022-10-17T02:43:20;99143.34;;;12.51;100.00
68948;BME280;55996;49.546;7.400;2022-10-17T02:45:47;99156.09;;;12.62;100.00
68948;BME280;55996;49.546;7.400;2022-10-17T02:48:38;99144.59;;;12.66;100.00
68948;BME280;55996;49.546;7.400;2022-10-17T02:51:35;99140.44;;;12.58;100.00
68948;BME280;55996;49.546;7.400;2022-10-17T02:59:27;99146.88;;;12.50;100.00
68948;BME280;55996;49.546;7.400;2022-10-17T03:01:54;99146.09;;;12.46;100.00
68948;BME280;55996;49.546;7.400;2022-10-17T03:04:19;99150.66;;;12.41;100.00
68948;BME280;55996;49.546;7.400;2022-10-17T03:06:46;99149.75;;;12.42;100.00
68948;BME280;55996;49.546;7.400;2022-10-17T03:09:13;99154.88;;;12.45;100.00
68948;BME280;55996;49.546;7.400;2022-10-17T03:11:38;99158.13;;;12.53;100.00
68948;BME280;55996;49.546;7.400;2022-10-17T03:14:04;99157.41;;;12.48;100.00
68948;BME280;55996;49.546;7.400;2022-10-17T03:16:29;99147.19;;;12.40;100.00
68948;BME280;55996;49.546;7.400;2022-10-17T03:18:55;99153.91;;;12.48;100.00
68948;BME280;55996;49.546;7.400;2022-10-17T03:21:20;99150.38;;;12.49;100.00
68948;BME280;55996;49.546;7.400;2022-10-17T03:23:46;99157.28;;;12.51;100.00
68948;BME280;55996;49.546;7.400;2022-10-17T03:26:12;99146.88;;;12.50;100.00
68948;BME280;55996;49.546;7.400;2022-10-17T03:28:37;99151.16;;;12.52;100.00
68948;BME280;55996;49.546;7.400;2022-10-17T03:31:11;99164.94;;;12.59;100.00
68948;BME280;55996;49.546;7.400;2022-10-17T03:33:37;99156.34;;;12.54;100.00
68948;BME280;55996;49.546;7.400;2022-10-17T03:36:11;99160.69;;;12.55;100.00
68948;BME280;55996;49.546;7.400;2022-10-17T03:38:37;99160.09;;;12.47;100.00
68948;BME280;55996;49.546;7.400;2022-10-17T03:41:03;99161.84;;;12.46;100.00
68948;BME280;55996;49.546;7.400;2022-10-17T03:43:29;99154.09;;;12.43;100.00
68948;BME280;55996;49.546;7.400;2022-10-17T03:45:58;99170.41;;;12.51;100.00
68948;BME280;55996;49.546;7.400;2022-10-17T03:48:25;99174.25;;;12.41;100.00
68948;BME280;55996;49.546;7.400;2022-10-17T03:50:51;99163.97;;;12.35;100.00
68948;BME280;55996;49.546;7.400;2022-10-17T03:53:16;99175.78;;;12.48;100.00
68948;BME280;55996;49.546;7.400;2022-10-17T03:55:42;99163.75;;;12.41;100.00
68948;BME280;55996;49.546;7.400;2022-10-17T03:58:07;99163.69;;;12.44;100.00
68948;BME280;55996;49.546;7.400;2022-10-17T04:00:35;99177.38;;;12.52;100.00
68948;BME280;55996;49.546;7.400;2022-10-17T04:03:00;99168.06;;;12.43;100.00
68948;BME280;55996;49.546;7.400;2022-10-17T04:05:26;99168.09;;;12.42;100.00
68948;BME280;55996;49.546;7.400;2022-10-17T04:07:51;99177.78;;;12.40;100.00
68948;BME280;55996;49.546;7.400;2022-10-17T04:10:17;99177.63;;;12.45;100.00
68948;BME280;55996;49.546;7.400;2022-10-17T04:12:43;99187.94;;;12.51;100.00
68948;BME280;55996;49.546;7.400;2022-10-17T04:15:09;99185.25;;;12.52;100.00
68948;BME280;55996;49.546;7.400;2022-10-17T04:17:34;99186.25;;;12.48;100.00
68948;BME280;55996;49.546;7.400;2022-10-17T04:20:00;99190.03;;;12.39;100.00
68948;BME280;55996;49.546;7.400;2022-10-17T04:22:26;99203.03;;;12.42;100.00
68948;BME280;55996;49.546;7.400;2022-10-17T04:24:51;99193.44;;;12.41;100.00
68948;BME280;55996;49.546;7.400;2022-10-17T04:27:16;99188.66;;;12.27;100.00
68948;BME280;55996;49.546;7.400;2022-10-17T04:29:42;99191.16;;;12.32;100.00
68948;BME280;55996;49.546;7.400;2022-10-17T04:32:08;99173.88;;;12.25;100.00
68948;BME280;55996;49.546;7.400;2022-10-17T04:34:33;99188.78;;;12.24;100.00
68948;BME280;55996;49.546;7.400;2022-10-17T04:36:59;99186.59;;;12.37;100.00
68948;BME280;55996;49.546;7.400;2022-10-17T04:39:24;99185.69;;;12.38;100.00
68948;BME280;55996;49.546;7.400;2022-10-17T04:41:50;99201.28;;;12.43;100.00
68948;BME280;55996;49.546;7.400;2022-10-17T04:44:15;99204.75;;;12.43;100.00
68948;BME280;55996;49.546;7.400;2022-10-17T04:46:41;99198.09;;;12.33;100.00
68948;BME280;55996;49.546;7.400;2022-10-17T04:49:07;99169.94;;;12.11;100.00
68948;BME280;55996;49.546;7.400;2022-10-17T04:51:33;99191.41;;;12.24;100.00
68948;BME280;55996;49.546;7.400;2022-10-17T04:53:58;99195.94;;;12.19;100.00
68948;BME280;55996;49.546;7.400;2022-10-17T04:56:23;99189.63;;;12.25;100.00
68948;BME280;55996;49.546;7.400;2022-10-17T04:58:49;99195.53;;;12.32;100.00
68948;BME280;55996;49.546;7.400;2022-10-17T05:01:17;99190.69;;;12.19;100.00
68948;BME280;55996;49.546;7.400;2022-10-17T05:03:44;99196.00;;;12.16;100.00
68948;BME280;55996;49.546;7.400;2022-10-17T05:06:12;99189.09;;;12.14;100.00
68948;BME280;55996;49.546;7.400;2022-10-17T05:08:38;99200.16;;;12.23;100.00
68948;BME280;55996;49.546;7.400;2022-10-17T05:11:04;99203.59;;;12.25;100.00
68948;BME280;55996;49.546;7.400;2022-10-17T05:13:31;99204.72;;;12.17;100.00
68948;BME280;55996;49.546;7.400;2022-10-17T05:15:58;99200.50;;;12.13;100.00
68948;BME280;55996;49.546;7.400;2022-10-17T05:18:25;99193.34;;;12.18;100.00
68948;BME280;55996;49.546;7.400;2022-10-17T05:20:50;99183.63;;;12.21;100.00
68948;BME280;55996;49.546;7.400;2022-10-17T05:23:16;99178.44;;;12.20;100.00
68948;BME280;55996;49.546;7.400;2022-10-17T05:25:42;99181.75;;;12.25;100.00
68948;BME280;55996;49.546;7.400;2022-10-17T05:28:07;99192.09;;;12.30;100.00
68948;BME280;55996;49.546;7.400;2022-10-17T05:30:33;99200.03;;;12.28;100.00
68948;BME280;55996;49.546;7.400;2022-10-17T05:32:59;99187.91;;;12.24;100.00
68948;BME280;55996;49.546;7.400;2022-10-17T05:35:24;99188.16;;;12.16;100.00
68948;BME280;55996;49.546;7.400;2022-10-17T05:37:49;99194.03;;;11.94;100.00
68948;BME280;55996;49.546;7.400;2022-10-17T05:40:15;99190.66;;;11.91;100.00
68948;BME280;55996;49.546;7.400;2022-10-17T05:42:45;99186.75;;;12.04;100.00
68948;BME280;55996;49.546;7.400;2022-10-17T05:45:11;99201.31;;;12.15;100.00
68948;BME280;55996;49.546;7.400;2022-10-17T05:47:37;99197.72;;;12.17;100.00
68948;BME280;55996;49.546;7.400;2022-10-17T05:50:02;99199.47;;;12.18;100.00
68948;BME280;55996;49.546;7.400;2022-10-17T05:52:28;99201.63;;;12.04;100.00
68948;BME280;55996;49.546;7.400;2022-10-17T05:54:53;99211.63;;;11.89;100.00
68948;BME280;55996;49.546;7.400;2022-10-17T05:57:19;99195.75;;;11.97;100.00
68948;BME280;55996;49.546;7.400;2022-10-17T05:59:45;99206.59;;;12.13;100.00
68948;BME280;55996;49.546;7.400;2022-10-17T06:02:11;99199.66;;;12.12;100.00
68948;BME280;55996;49.546;7.400;2022-10-17T06:04:37;99204.63;;;12.20;100.00
68948;BME280;55996;49.546;7.400;2022-10-17T06:07:03;99215.84;;;12.25;100.00
68948;BME280;55996;49.546;7.400;2022-10-17T06:09:29;99207.53;;;12.10;100.00
68948;BME280;55996;49.546;7.400;2022-10-17T06:11:54;99213.47;;;12.17;100.00
68948;BME280;55996;49.546;7.400;2022-10-17T06:14:20;99213.13;;;12.28;100.00
68948;BME280;55996;49.546;7.400;2022-10-17T06:16:45;99212.94;;;12.34;100.00
68948;BME280;55996;49.546;7.400;2022-10-17T06:19:11;99216.59;;;12.29;100.00
68948;BME280;55996;49.546;7.400;2022-10-17T06:21:36;99216.00;;;12.47;100.00
68948;BME280;55996;49.546;7.400;2022-10-17T06:24:03;99209.72;;;12.53;100.00
68948;BME280;55996;49.546;7.400;2022-10-17T06:26:28;99210.22;;;12.64;100.00
68948;BME280;55996;49.546;7.400;2022-10-17T06:28:54;99228.72;;;12.86;100.00
68948;BME280;55996;49.546;7.400;2022-10-17T06:31:19;99221.22;;;13.01;100.00
68948;BME280;55996;49.546;7.400;2022-10-17T06:33:45;99225.09;;;13.16;100.00
68948;BME280;55996;49.546;7.400;2022-10-17T06:36:12;99227.19;;;13.31;100.00
68948;BME280;55996;49.546;7.400;2022-10-17T06:38:38;99225.13;;;13.41;100.00
68948;BME280;55996;49.546;7.400;2022-10-17T06:43:32;99237.06;;;13.74;100.00
68948;BME280;55996;49.546;7.400;2022-10-17T06:45:57;99253.00;;;13.93;100.00
68948;BME280;55996;49.546;7.400;2022-10-17T06:48:23;99252.44;;;14.08;100.00
68948;BME280;55996;49.546;7.400;2022-10-17T06:50:48;99244.75;;;14.26;100.00
68948;BME280;55996;49.546;7.400;2022-10-17T06:53:14;99253.78;;;14.41;100.00
68948;BME280;55996;49.546;7.400;2022-10-17T06:55:39;99261.78;;;14.60;100.00
68948;BME280;55996;49.546;7.400;2022-10-17T06:58:04;99263.59;;;14.81;100.00
68948;BME280;55996;49.546;7.400;2022-10-17T07:00:30;99258.56;;;14.97;100.00
68948;BME280;55996;49.546;7.400;2022-10-17T07:02:55;99260.34;;;15.17;100.00
68948;BME280;55996;49.546;7.400;2022-10-17T07:05:20;99266.59;;;15.36;100.00
68948;BME280;55996;49.546;7.400;2022-10-17T07:07:46;99266.72;;;15.53;100.00
68948;BME280;55996;49.546;7.400;2022-10-17T07:10:12;99262.63;;;15.67;100.00
68948;BME280;55996;49.546;7.400;2022-10-17T07:12:37;99256.72;;;15.80;100.00
68948;BME280;55996;49.546;7.400;2022-10-17T07:15:04;99267.47;;;15.96;100.00
68948;BME280;55996;49.546;7.400;2022-10-17T07:17:30;99272.88;;;16.12;100.00
68948;BME280;55996;49.546;7.400;2022-10-17T07:19:55;99282.16;;;16.21;100.00
68948;BME280;55996;49.546;7.400;2022-10-17T07:22:21;99280.06;;;16.28;100.00
68948;BME280;55996;49.546;7.400;2022-10-17T07:24:46;99280.47;;;16.38;100.00
68948;BME280;55996;49.546;7.400;2022-10-17T07:27:13;99283.53;;;16.48;100.00
68948;BME280;55996;49.546;7.400;2022-10-17T07:29:39;99274.31;;;16.56;100.00
68948;BME280;55996;49.546;7.400;2022-10-17T07:32:04;99275.50;;;16.68;100.00
68948;BME280;55996;49.546;7.400;2022-10-17T07:34:33;99276.69;;;16.80;100.00
68948;BME280;55996;49.546;7.400;2022-10-17T07:36:59;99273.25;;;16.97;100.00
68948;BME280;55996;49.546;7.400;2022-10-17T07:39:24;99281.28;;;17.13;100.00
68948;BME280;55996;49.546;7.400;2022-10-17T07:41:50;99274.56;;;17.23;100.00
68948;BME280;55996;49.546;7.400;2022-10-17T07:44:15;99271.75;;;17.26;100.00
68948;BME280;55996;49.546;7.400;2022-10-17T07:46:40;99287.31;;;17.33;100.00
68948;BME280;55996;49.546;7.400;2022-10-17T07:49:06;99285.44;;;17.35;100.00
68948;BME280;55996;49.546;7.400;2022-10-17T07:51:31;99298.44;;;17.39;100.00
68948;BME280;55996;49.546;7.400;2022-10-17T07:53:57;99297.66;;;17.37;100.00
68948;BME280;55996;49.546;7.400;2022-10-17T07:56:23;99288.66;;;17.41;100.00
68948;BME280;55996;49.546;7.400;2022-10-17T07:58:50;99299.22;;;17.41;100.00
68948;BME280;55996;49.546;7.400;2022-10-17T08:01:16;99291.34;;;17.40;100.00
68948;BME280;55996;49.546;7.400;2022-10-17T08:03:45;99276.06;;;17.29;100.00
68948;BME280;55996;49.546;7.400;2022-10-17T08:06:13;99284.44;;;17.37;100.00
68948;BME280;55996;49.546;7.400;2022-10-17T08:08:38;99287.16;;;17.36;100.00
68948;BME280;55996;49.546;7.400;2022-10-17T08:11:07;99289.56;;;17.40;100.00
68948;BME280;55996;49.546;7.400;2022-10-17T08:13:33;99294.47;;;17.48;100.00
68948;BME280;55996;49.546;7.400;2022-10-17T08:16:01;99294.28;;;17.51;100.00
68948;BME280;55996;49.546;7.400;2022-10-17T08:18:27;99288.25;;;17.49;100.00
68948;BME280;55996;49.546;7.400;2022-10-17T08:20:52;99300.91;;;17.60;100.00
68948;BME280;55996;49.546;7.400;2022-10-17T08:23:18;99301.44;;;17.67;100.00
68948;BME280;55996;49.546;7.400;2022-10-17T08:25:43;99303.75;;;17.73;100.00
68948;BME280;55996;49.546;7.400;2022-10-17T08:28:09;99305.13;;;17.80;100.00
68948;BME280;55996;49.546;7.400;2022-10-17T08:30:34;99310.09;;;17.86;100.00
68948;BME280;55996;49.546;7.400;2022-10-17T08:33:00;99300.03;;;17.93;100.00
68948;BME280;55996;49.546;7.400;2022-10-17T08:35:26;99297.88;;;18.01;100.00
68948;BME280;55996;49.546;7.400;2022-10-17T08:37:51;99299.94;;;18.12;100.00
68948;BME280;55996;49.546;7.400;2022-10-17T08:40:22;99289.50;;;18.09;100.00
68948;BME280;55996;49.546;7.400;2022-10-17T08:45:38;99291.41;;;18.39;100.00
68948;BME280;55996;49.546;7.400;2022-10-17T08:48:13;99290.22;;;18.45;100.00
68948;BME280;55996;49.546;7.400;2022-10-17T08:51:41;99304.06;;;18.66;100.00
68948;BME280;55996;49.546;7.400;2022-10-17T08:54:23;99311.97;;;18.82;100.00
68948;BME280;55996;49.546;7.400;2022-10-17T08:56:52;99308.69;;;19.09;100.00
68948;BME280;55996;49.546;7.400;2022-10-17T08:59:27;99308.63;;;19.55;100.00
68948;BME280;55996;49.546;7.400;2022-10-17T09:04:52;99293.81;;;20.52;100.00
68948;BME280;55996;49.546;7.400;2022-10-17T09:15:36;99287.44;;;21.63;100.00
68948;BME280;55996;49.546;7.400;2022-10-17T09:18:28;99293.38;;;21.79;100.00
68948;BME280;55996;49.546;7.400;2022-10-17T09:24:03;99302.38;;;21.51;99.19
68948;BME280;55996;49.546;7.400;2022-10-17T09:26:30;99294.94;;;21.43;98.25
68948;BME280;55996;49.546;7.400;2022-10-17T09:28:58;99302.06;;;21.55;100.00
68948;BME280;55996;49.546;7.400;2022-10-17T09:31:28;99310.94;;;21.69;100.00
68948;BME280;55996;49.546;7.400;2022-10-17T09:33:56;99317.34;;;21.66;100.00
68948;BME280;55996;49.546;7.400;2022-10-17T09:36:36;99318.59;;;21.60;100.00
68948;BME280;55996;49.546;7.400;2022-10-17T09:39:03;99327.28;;;21.37;100.00
68948;BME280;55996;49.546;7.400;2022-10-17T09:41:36;99326.06;;;21.15;100.00
68948;BME280;55996;49.546;7.400;2022-10-17T09:46:37;99326.97;;;20.74;100.00
68948;BME280;55996;49.546;7.400;2022-10-17T09:49:14;99328.59;;;20.62;100.00
68948;BME280;55996;49.546;7.400;2022-10-17T09:51:41;99335.00;;;20.45;100.00
68948;BME280;55996;49.546;7.400;2022-10-17T09:54:23;99340.50;;;20.42;100.00
68948;BME280;55996;49.546;7.400;2022-10-17T09:56:59;99338.25;;;20.36;100.00
68948;BME280;55996;49.546;7.400;2022-10-17T09:59:47;99340.50;;;20.42;100.00
68948;BME280;55996;49.546;7.400;2022-10-17T10:02:22;99349.22;;;20.44;100.00
68948;BME280;55996;49.546;7.400;2022-10-17T10:07:16;99345.06;;;20.40;100.00
68948;BME280;55996;49.546;7.400;2022-10-17T10:09:45;99349.22;;;20.44;100.00
68948;BME280;55996;49.546;7.400;2022-10-17T10:14:47;99341.81;;;20.49;100.00
68948;BME280;55996;49.546;7.400;2022-10-17T10:17:32;99351.75;;;20.60;100.00
68948;BME280;55996;49.546;7.400;2022-10-17T10:20:00;99345.50;;;20.61;100.00
68948;BME280;55996;49.546;7.400;2022-10-17T10:22:26;99358.66;;;20.62;100.00
68948;BME280;55996;49.546;7.400;2022-10-17T10:25:16;99367.19;;;20.68;100.00
68948;BME280;55996;49.546;7.400;2022-10-17T10:27:43;99366.34;;;20.67;100.00
68948;BME280;55996;49.546;7.400;2022-10-17T10:30:18;99370.25;;;20.76;100.00
68948;BME280;55996;49.546;7.400;2022-10-17T10:32:45;99365.69;;;20.78;100.00
68948;BME280;55996;49.546;7.400;2022-10-17T10:35:24;99370.94;;;20.92;100.00
68948;BME280;55996;49.546;7.400;2022-10-17T10:37:55;99376.28;;;20.92;100.00
68948;BME280;55996;49.546;7.400;2022-10-17T10:42:54;99378.78;;;21.08;100.00
68948;BME280;55996;49.546;7.400;2022-10-17T10:45:27;99375.28;;;21.08;100.00
68948;BME280;55996;49.546;7.400;2022-10-17T10:47:58;99383.00;;;20.98;100.00
68948;BME280;55996;49.546;7.400;2022-10-17T10:55:59;99378.78;;;21.08;100.00
68948;BME280;55996;49.546;7.400;2022-10-17T10:58:33;99374.34;;;21.09;100.00
68948;BME280;55996;49.546;7.400;2022-10-17T11:01:04;99375.69;;;21.02;100.00
68948;BME280;55996;49.546;7.400;2022-10-17T11:03:51;99378.53;;;20.99;100.00
68948;BME280;55996;49.546;7.400;2022-10-17T11:06:23;99381.41;;;20.95;100.00
68948;BME280;55996;49.546;7.400;2022-10-17T11:09:28;99389.38;;;20.95;100.00
68948;BME280;55996;49.546;7.400;2022-10-17T11:12:26;99380.84;;;20.90;100.00
68948;BME280;55996;49.546;7.400;2022-10-17T11:17:41;99387.28;;;20.86;100.00
68948;BME280;55996;49.546;7.400;2022-10-17T11:23:27;99404.41;;;20.82;100.00
68948;BME280;55996;49.546;7.400;2022-10-17T11:25:53;99399.09;;;20.82;100.00
68948;BME280;55996;49.546;7.400;2022-10-17T11:28:22;99398.66;;;20.75;100.00
68948;BME280;55996;49.546;7.400;2022-10-17T11:30:59;99402.34;;;20.73;100.00
68948;BME280;55996;49.546;7.400;2022-10-17T11:36:11;99396.75;;;20.63;100.00
68948;BME280;55996;49.546;7.400;2022-10-17T11:41:21;99397.13;;;20.57;100.00
68948;BME280;55996;49.546;7.400;2022-10-17T11:46:35;99400.72;;;20.56;100.00
68948;BME280;55996;49.546;7.400;2022-10-17T11:51:29;99405.97;;;20.72;100.00
68948;BME280;55996;49.546;7.400;2022-10-17T11:54:05;99405.16;;;20.84;100.00
68948;BME280;55996;49.546;7.400;2022-10-17T12:02:00;99394.19;;;21.31;100.00
68948;BME280;55996;49.546;7.400;2022-10-17T12:12:23;99392.84;;;21.51;100.00
68948;BME280;55996;49.546;7.400;2022-10-17T12:14:49;99397.69;;;21.58;100.00
68948;BME280;55996;49.546;7.400;2022-10-17T12:17:34;99386.84;;;21.62;100.00
68948;BME280;55996;49.546;7.400;2022-10-17T12:22:46;99386.56;;;21.52;100.00
68948;BME280;55996;49.546;7.400;2022-10-17T12:25:17;99395.06;;;21.44;100.00
68948;BME280;55996;49.546;7.400;2022-10-17T12:27:45;99396.25;;;21.40;100.00
68948;BME280;55996;49.546;7.400;2022-10-17T12:35:23;99404.50;;;21.22;100.00
68948;BME280;55996;49.546;7.400;2022-10-17T12:45:52;99393.84;;;21.22;100.00
68948;BME280;55996;49.546;7.400;2022-10-17T12:56:13;99388.72;;;21.19;100.00
68948;BME280;55996;49.546;7.400;2022-10-17T12:58:44;99382.56;;;21.19;100.00
68948;BME280;55996;49.546;7.400;2022-10-17T13:01:17;99393.19;;;21.19;100.00
68948;BME280;55996;49.546;7.400;2022-10-17T13:03:47;99392.53;;;21.15;100.00
68948;BME280;55996;49.546;7.400;2022-10-17T13:06:26;99388.19;;;21.14;100.00
68948;BME280;55996;49.546;7.400;2022-10-17T13:08:59;99390.63;;;21.17;100.00
68948;BME280;55996;49.546;7.400;2022-10-17T13:11:27;99389.34;;;21.10;100.00
68948;BME280;55996;49.546;7.400;2022-10-17T13:13:56;99398.66;;;21.03;100.00
68948;BME280;55996;49.546;7.400;2022-10-17T13:16:36;99398.56;;;21.04;100.00
68948;BME280;55996;49.546;7.400;2022-10-17T13:19:21;99409.31;;;21.03;100.00
68948;BME280;55996;49.546;7.400;2022-10-17T13:22:02;99404.72;;;21.05;100.00
68948;BME280;55996;49.546;7.400;2022-10-17T13:24:32;99407.94;;;21.10;100.00
68948;BME280;55996;49.546;7.400;2022-10-17T13:26:58;99412.09;;;21.14;100.00
68948;BME280;55996;49.546;7.400;2022-10-17T13:29:24;99408.50;;;21.15;100.00
68948;BME280;55996;49.546;7.400;2022-10-17T13:31:54;99413.41;;;21.21;100.00
68948;BME280;55996;49.546;7.400;2022-10-17T13:34:23;99413.75;;;21.29;100.00
68948;BME280;55996;49.546;7.400;2022-10-17T13:36:55;99416.22;;;21.33;100.00
68948;BME280;55996;49.546;7.400;2022-10-17T13:39:24;99408.03;;;21.36;100.00
68948;BME280;55996;49.546;7.400;2022-10-17T13:41:51;99415.91;;;21.37;100.00
68948;BME280;55996;49.546;7.400;2022-10-17T13:44:23;99419.41;;;21.38;100.00
68948;BME280;55996;49.546;7.400;2022-10-17T13:46:49;99416.22;;;21.33;100.00
68948;BME280;55996;49.546;7.400;2022-10-17T13:49:42;99415.47;;;21.31;100.00
68948;BME280;55996;49.546;7.400;2022-10-17T13:52:16;99417.56;;;21.25;100.00
68948;BME280;55996;49.546;7.400;2022-10-17T13:54:44;99420.34;;;21.24;100.00
68948;BME280;55996;49.546;7.400;2022-10-17T13:57:28;99417.47;;;21.27;100.00
68948;BME280;55996;49.546;7.400;2022-10-17T13:59:56;99417.03;;;21.20;100.00
68948;BME280;55996;49.546;7.400;2022-10-17T14:02:26;99416.47;;;21.15;100.00
68948;BME280;55996;49.546;7.400;2022-10-17T14:07:37;99420.28;;;21.11;100.00
68948;BME280;55996;49.546;7.400;2022-10-17T14:10:04;99423.53;;;21.02;100.00
68948;BME280;55996;49.546;7.400;2022-10-17T14:12:32;99418.22;;;21.02;100.00
68948;BME280;55996;49.546;7.400;2022-10-17T14:15:01;99427.25;;;20.99;100.00
68948;BME280;55996;49.546;7.400;2022-10-17T14:17:28;99423.16;;;20.93;100.00
68948;BME280;55996;49.546;7.400;2022-10-17T14:20:02;99426.03;;;20.90;100.00
68948;BME280;55996;49.546;7.400;2022-10-17T14:22:29;99431.53;;;20.87;100.00
68948;BME280;55996;49.546;7.400;2022-10-17T14:24:57;99424.16;;;20.78;100.00
68948;BME280;55996;49.546;7.400;2022-10-17T14:29:56;99425.09;;;20.77;100.00
68948;BME280;55996;49.546;7.400;2022-10-17T14:32:26;99429.59;;;20.76;100.00
68948;BME280;55996;49.546;7.400;2022-10-17T14:34:54;99428.72;;;20.76;100.00
68948;BME280;55996;49.546;7.400;2022-10-17T14:37:33;99426.16;;;20.74;100.00
68948;BME280;55996;49.546;7.400;2022-10-17T14:40:05;99427.78;;;20.77;100.00
68948;BME280;55996;49.546;7.400;2022-10-17T14:42:31;99427.94;;;20.74;100.00
68948;BME280;55996;49.546;7.400;2022-10-17T14:45:05;99424.81;;;20.67;100.00
68948;BME280;55996;49.546;7.400;2022-10-17T14:47:31;99429.00;;;20.71;100.00
68948;BME280;55996;49.546;7.400;2022-10-17T14:50:20;99438.00;;;20.69;100.00
68948;BME280;55996;49.546;7.400;2022-10-17T14:52:59;99445.22;;;20.67;100.00
68948;BME280;55996;49.546;7.400;2022-10-17T14:55:27;99444.06;;;20.56;100.00
68948;BME280;55996;49.546;7.400;2022-10-17T14:57:53;99444.66;;;20.47;100.00
68948;BME280;55996;49.546;7.400;2022-10-17T15:00:20;99446.75;;;20.42;100.00
68948;BME280;55996;49.546;7.400;2022-10-17T15:02:46;99450.06;;;20.45;100.00
68948;BME280;55996;49.546;7.400;2022-10-17T15:05:13;99454.50;;;20.45;100.00